createdAt,value
2018-03-23T00:01:33.300Z,32.40
2018-03-23T00:04:01.564Z,31.33
2018-03-23T00:06:31.523Z,31.37
2018-03-23T00:08:59.906Z,31.02
2018-03-23T00:11:28.205Z,29.55
2018-03-23T00:13:56.474Z,29.27
2018-03-23T00:16:24.744Z,29.63
2018-03-23T00:18:53.008Z,29.70
2018-03-23T00:21:21.295Z,29.77
2018-03-23T00:23:49.695Z,30.52
2018-03-23T00:26:18.004Z,28.33
2018-03-23T00:28:46.311Z,30.58
2018-03-23T00:31:15.253Z,29.73
2018-03-23T00:33:43.722Z,29.20
2018-03-23T00:36:11.967Z,27.37
2018-03-23T00:38:40.268Z,31.00
2018-03-23T00:41:08.527Z,29.37
2018-03-23T00:43:36.832Z,30.80
2018-03-23T00:46:05.104Z,32.88
2018-03-23T00:48:34.157Z,31.20
2018-03-23T00:51:06.554Z,30.65
2018-03-23T00:53:34.819Z,33.28
2018-03-23T00:56:03.190Z,29.42
2018-03-23T00:58:31.445Z,29.50
2018-03-23T01:00:59.711Z,29.17
2018-03-23T01:03:27.974Z,29.90
2018-03-23T01:05:57.072Z,31.12
2018-03-23T01:08:26.286Z,29.08
2018-03-23T01:10:54.560Z,30.48
2018-03-23T01:13:22.834Z,31.55
2018-03-23T01:15:51.082Z,32.22
2018-03-23T01:18:20.142Z,32.45
2018-03-23T01:20:48.418Z,31.27
2018-03-23T01:23:16.667Z,33.10
2018-03-23T01:25:45.046Z,33.17
2018-03-23T01:28:13.404Z,36.22
2018-03-23T01:30:41.742Z,33.35
2018-03-23T01:33:10.002Z,34.20
2018-03-23T01:35:38.275Z,33.40
2018-03-23T01:38:06.559Z,34.83
2018-03-23T01:40:34.849Z,31.77
2018-03-23T01:43:03.140Z,34.05
2018-03-23T01:45:32.335Z,33.60
2018-03-23T01:48:01.431Z,33.90
2018-03-23T01:50:30.464Z,35.25
2018-03-23T01:52:58.822Z,33.88
2018-03-23T01:55:27.990Z,30.92
2018-03-23T01:57:57.138Z,36.53
2018-03-23T02:00:25.416Z,34.65
2018-03-23T02:02:53.677Z,36.03
2018-03-23T02:05:21.947Z,35.05
2018-03-23T02:07:54.538Z,37.03
2018-03-23T02:10:23.488Z,37.75
2018-03-23T02:12:55.764Z,36.13
2018-03-23T02:15:24.062Z,38.88
2018-03-23T02:17:52.348Z,38.00
2018-03-23T02:20:21.435Z,39.17
2018-03-23T02:22:49.724Z,38.15
2018-03-23T02:25:17.987Z,40.05
2018-03-23T02:27:46.273Z,41.33
2018-03-23T02:30:14.572Z,41.92
2018-03-23T02:32:43.019Z,41.78
2018-03-23T02:35:11.305Z,38.78
2018-03-23T02:37:39.628Z,37.78
2018-03-23T02:40:09.956Z,39.17
2018-03-23T02:42:38.241Z,41.58
2018-03-23T02:45:07.277Z,38.28
2018-03-23T02:47:35.559Z,38.63
2018-03-23T02:50:03.917Z,40.75
2018-03-23T02:52:32.167Z,38.00
2018-03-23T02:55:00.478Z,37.35
2018-03-23T02:57:28.740Z,37.35
2018-03-23T02:59:57.120Z,37.15
2018-03-23T03:02:25.398Z,38.97
2018-03-23T03:04:53.773Z,36.75
2018-03-23T03:07:22.043Z,39.05
2018-03-23T03:09:50.450Z,35.72
2018-03-23T03:12:18.912Z,38.10
2018-03-23T03:14:47.188Z,36.92
2018-03-23T03:17:15.467Z,38.83
2018-03-23T03:19:43.917Z,37.90
2018-03-23T03:22:12.200Z,38.50
2018-03-23T03:24:40.472Z,36.25
2018-03-23T03:27:08.750Z,35.65
2018-03-23T03:29:37.039Z,37.40
2018-03-23T03:32:05.297Z,36.65
2018-03-23T03:34:33.590Z,34.10
2018-03-23T03:37:01.866Z,34.75
2018-03-23T03:39:30.149Z,37.58
2018-03-23T03:41:58.434Z,37.28
2018-03-23T03:44:26.691Z,37.35
2018-03-23T03:46:55.614Z,36.72
2018-03-23T03:49:23.887Z,36.45
2018-03-23T03:51:52.170Z,35.95
2018-03-23T03:54:21.192Z,35.85
2018-03-23T03:56:49.471Z,39.00
2018-03-23T03:59:17.731Z,36.10
2018-03-23T04:01:46.009Z,35.08
2018-03-23T04:04:14.282Z,36.90
2018-03-23T04:06:42.563Z,34.67
2018-03-23T04:09:10.849Z,35.05
2018-03-23T04:11:39.139Z,40.00
2018-03-23T04:14:07.450Z,39.53
2018-03-23T04:16:35.716Z,39.03
2018-03-23T04:19:04.139Z,38.70
2018-03-23T04:21:32.463Z,39.00
2018-03-23T04:24:00.745Z,38.13
2018-03-23T04:26:29.025Z,34.90
2018-03-23T04:28:57.300Z,34.28
2018-03-23T04:31:25.595Z,33.05
2018-03-23T04:33:53.891Z,32.92
2018-03-23T04:36:22.330Z,32.97
2018-03-23T04:38:50.579Z,32.40
2018-03-23T04:41:18.940Z,29.25
2018-03-23T04:43:47.356Z,26.95
2018-03-23T04:46:15.610Z,26.73
2018-03-23T04:48:43.877Z,29.25
2018-03-23T04:51:12.156Z,27.52
2018-03-23T04:53:40.480Z,25.67
2018-03-23T04:56:09.557Z,23.23
2018-03-23T04:58:37.878Z,23.50
2018-03-23T05:01:06.162Z,24.77
2018-03-23T05:03:34.463Z,21.95
2018-03-23T05:06:02.727Z,24.30
2018-03-23T05:08:30.986Z,24.95
2018-03-23T05:10:59.947Z,24.25
2018-03-23T05:13:29.014Z,26.23
2018-03-23T05:15:57.264Z,24.70
2018-03-23T05:18:25.742Z,26.50
2018-03-23T05:20:54.009Z,28.62
2018-03-23T05:23:22.342Z,25.40
2018-03-23T05:25:51.378Z,27.15
2018-03-23T05:28:19.645Z,24.45
2018-03-23T05:30:47.959Z,23.45
2018-03-23T05:33:16.275Z,25.10
2018-03-23T05:35:44.568Z,22.48
2018-03-23T05:38:12.835Z,21.27
2018-03-23T05:40:41.291Z,23.55
2018-03-23T05:43:09.568Z,24.05
2018-03-23T05:45:38.624Z,23.75
2018-03-23T05:48:07.018Z,25.92
2018-03-23T05:50:36.906Z,24.08
2018-03-23T05:53:05.229Z,24.12
2018-03-23T05:55:34.344Z,24.87
2018-03-23T05:58:02.621Z,26.05
2018-03-23T06:00:30.893Z,25.92
2018-03-23T06:02:59.955Z,28.10
2018-03-23T06:05:29.075Z,29.33
2018-03-23T06:07:58.176Z,29.25
2018-03-23T06:10:26.470Z,28.62
2018-03-23T06:12:54.753Z,27.67
2018-03-23T06:15:23.777Z,29.70
2018-03-23T06:17:52.258Z,29.00
2018-03-23T06:20:20.598Z,32.33
2018-03-23T06:22:48.913Z,28.83
2018-03-23T06:25:17.390Z,30.42
2018-03-23T06:27:45.753Z,29.02
2018-03-23T06:30:14.081Z,25.65
2018-03-23T06:32:42.610Z,28.23
2018-03-23T06:35:10.992Z,28.55
2018-03-23T06:37:39.252Z,32.70
2018-03-23T06:40:07.526Z,30.77
2018-03-23T06:42:35.803Z,29.23
2018-03-23T06:45:04.079Z,27.80
2018-03-23T06:47:32.344Z,29.02
2018-03-23T06:50:00.855Z,30.92
2018-03-23T06:52:29.107Z,29.90
2018-03-23T06:54:57.701Z,31.42
2018-03-23T06:57:26.028Z,30.98
2018-03-23T06:59:54.903Z,35.45
2018-03-23T07:02:23.333Z,32.47
2018-03-23T07:04:51.606Z,31.37
2018-03-23T07:07:19.889Z,27.42
2018-03-23T07:09:49.052Z,31.33
2018-03-23T07:12:17.458Z,38.38
2018-03-23T07:14:46.235Z,36.83
2018-03-23T07:17:14.517Z,33.40
2018-03-23T07:19:42.813Z,29.27
2018-03-23T07:22:11.120Z,41.75
2018-03-23T07:24:40.246Z,30.67
2018-03-23T07:27:08.528Z,30.20
2018-03-23T07:29:37.042Z,31.10
2018-03-23T07:32:07.180Z,28.12
2018-03-23T07:34:36.216Z,21.52
2018-03-23T07:37:04.659Z,22.62
2018-03-23T07:39:33.899Z,19.85
2018-03-23T07:42:02.242Z,23.48
2018-03-23T07:44:30.625Z,22.55
2018-03-23T07:46:58.919Z,24.55
2018-03-23T07:49:27.207Z,24.67
2018-03-23T07:51:55.548Z,24.58
2018-03-23T07:54:24.733Z,22.58
2018-03-23T07:56:53.841Z,23.80
2018-03-23T07:59:22.126Z,20.88
2018-03-23T08:01:50.388Z,22.35
2018-03-23T08:04:19.472Z,22.50
2018-03-23T08:06:48.700Z,22.83
2018-03-23T08:09:16.980Z,24.95
2018-03-23T08:11:45.256Z,23.58
2018-03-23T08:14:13.533Z,24.80
2018-03-23T08:16:41.809Z,23.15
2018-03-23T08:19:10.255Z,23.50
2018-03-23T08:21:38.566Z,25.88
2018-03-23T08:24:06.836Z,20.65
2018-03-23T08:26:35.181Z,24.98
2018-03-23T08:29:03.462Z,25.05
2018-03-23T08:31:32.510Z,25.65
2018-03-23T08:34:00.783Z,23.30
2018-03-23T08:36:29.210Z,23.00
2018-03-23T08:38:57.624Z,22.55
2018-03-23T08:41:25.902Z,24.50
2018-03-23T08:43:54.507Z,23.67
2018-03-23T08:48:58.104Z,22.15
2018-03-23T08:51:26.370Z,23.55
2018-03-23T08:53:54.643Z,23.60
2018-03-23T08:56:22.924Z,21.90
2018-03-23T08:58:51.188Z,21.70
2018-03-23T09:01:19.506Z,21.90
2018-03-23T09:03:48.559Z,22.75
2018-03-23T09:06:17.820Z,22.08
2018-03-23T09:08:46.113Z,24.20
2018-03-23T09:11:14.599Z,20.73
2018-03-23T09:13:42.882Z,22.83
2018-03-23T09:16:11.168Z,25.45
2018-03-23T09:18:39.709Z,22.40
2018-03-23T09:21:08.059Z,22.40
2018-03-23T09:23:36.364Z,21.52
2018-03-23T09:26:04.680Z,22.95
2018-03-23T09:28:32.991Z,31.70
2018-03-23T09:31:01.279Z,28.00
2018-03-23T09:33:30.621Z,41.95
2018-03-23T09:35:58.897Z,30.65
2018-03-23T09:38:27.181Z,35.00
2018-03-23T09:40:55.454Z,25.33
2018-03-23T09:43:23.765Z,26.48
2018-03-23T09:45:52.052Z,25.48
2018-03-23T09:48:20.599Z,28.38
2018-03-23T09:50:48.862Z,27.77
2018-03-23T09:53:17.125Z,23.45
2018-03-23T09:55:45.421Z,28.00
2018-03-23T09:58:13.681Z,24.17
2018-03-23T10:00:42.222Z,25.90
2018-03-23T10:03:11.352Z,24.50
2018-03-23T10:05:40.008Z,23.80
2018-03-23T10:08:08.313Z,26.90
2018-03-23T10:10:36.595Z,26.67
2018-03-23T10:13:04.864Z,21.87
2018-03-23T10:15:34.411Z,24.27
2018-03-23T10:18:02.667Z,21.62
2018-03-23T10:20:31.224Z,19.25
2018-03-23T10:22:59.501Z,18.33
2018-03-23T10:25:27.880Z,20.70
2018-03-23T10:27:56.158Z,20.62
2018-03-23T10:30:24.433Z,20.30
2018-03-23T10:32:52.701Z,21.70
2018-03-23T10:35:20.999Z,21.80
2018-03-23T10:37:49.348Z,21.27
2018-03-23T10:40:17.632Z,18.37
2018-03-23T10:42:46.324Z,17.70
2018-03-23T10:45:14.903Z,17.33
2018-03-23T10:47:43.178Z,18.92
2018-03-23T10:50:12.376Z,17.90
2018-03-23T10:52:40.698Z,19.48
2018-03-23T10:55:08.919Z,19.30
2018-03-23T10:57:37.191Z,19.98
2018-03-23T11:00:05.472Z,22.13
2018-03-23T11:02:43.833Z,19.62
2018-03-23T11:05:12.868Z,19.45
2018-03-23T11:07:41.154Z,17.02
2018-03-23T11:10:09.698Z,18.67
2018-03-23T11:12:38.099Z,15.77
2018-03-23T11:15:06.416Z,16.10
2018-03-23T11:17:34.732Z,17.15
2018-03-23T11:20:03.107Z,15.65
2018-03-23T11:22:32.229Z,14.00
2018-03-23T11:25:00.526Z,14.95
2018-03-23T11:27:28.792Z,14.45
2018-03-23T11:29:57.069Z,15.95
2018-03-23T11:32:25.343Z,16.10
2018-03-23T11:34:53.619Z,17.42
2018-03-23T11:37:21.899Z,17.05
2018-03-23T11:39:50.203Z,17.62
2018-03-23T11:42:19.243Z,15.27
2018-03-23T11:44:47.525Z,17.12
2018-03-23T11:47:15.800Z,16.55
2018-03-23T11:49:44.230Z,14.50
2018-03-23T11:52:12.648Z,12.32
2018-03-23T11:54:40.926Z,13.75
2018-03-23T11:57:09.403Z,14.18
2018-03-23T11:59:37.729Z,14.25
2018-03-23T12:02:06.080Z,14.70
2018-03-23T12:04:34.320Z,17.25
2018-03-23T12:07:02.633Z,19.85
2018-03-23T12:09:31.043Z,22.67
2018-03-23T12:12:00.185Z,20.27
2018-03-23T12:14:28.464Z,17.52
2018-03-23T12:16:56.779Z,16.67
2018-03-23T12:19:25.056Z,16.52
2018-03-23T12:21:53.334Z,17.48
2018-03-23T12:24:22.381Z,17.90
2018-03-23T12:26:50.658Z,17.95
2018-03-23T12:29:18.963Z,18.40
2018-03-23T12:31:47.266Z,17.00
2018-03-23T12:36:51.050Z,18.55
2018-03-23T12:39:19.337Z,19.10
2018-03-23T12:41:47.608Z,21.20
2018-03-23T12:44:15.902Z,19.90
2018-03-23T12:46:45.285Z,19.52
2018-03-23T12:49:14.585Z,21.33
2018-03-23T12:51:42.864Z,18.75
2018-03-23T12:54:11.156Z,19.15
2018-03-23T12:56:40.475Z,18.85
2018-03-23T12:59:08.783Z,19.67
2018-03-23T13:01:37.070Z,16.98
2018-03-23T13:04:05.363Z,20.10
2018-03-23T13:06:33.634Z,19.05
2018-03-23T13:09:03.018Z,18.27
2018-03-23T13:11:31.375Z,19.52
2018-03-23T13:13:59.652Z,19.17
2018-03-23T13:16:28.084Z,21.65
2018-03-23T13:18:57.196Z,21.17
2018-03-23T13:21:26.449Z,20.80
2018-03-23T13:23:54.829Z,19.40
2018-03-23T13:26:23.103Z,20.67
2018-03-23T13:28:51.584Z,19.10
2018-03-23T13:31:20.138Z,22.45
2018-03-23T13:33:48.773Z,23.17
2018-03-23T13:36:17.820Z,23.70
2018-03-23T13:38:46.544Z,26.00
2018-03-23T13:41:14.835Z,30.12
2018-03-23T13:43:43.163Z,26.08
2018-03-23T13:46:11.574Z,21.87
2018-03-23T13:48:40.640Z,22.40
2018-03-23T13:51:08.909Z,25.42
2018-03-23T13:53:37.238Z,27.70
2018-03-23T13:56:06.514Z,27.25
2018-03-23T13:58:41.074Z,22.75
2018-03-23T14:04:10.093Z,22.48
2018-03-23T14:06:38.390Z,21.95
2018-03-23T14:09:06.730Z,20.70
2018-03-23T14:11:35.359Z,22.20
2018-03-23T14:14:03.571Z,22.02
2018-03-23T14:16:32.689Z,21.25
2018-03-23T14:19:00.978Z,21.85
2018-03-23T14:21:29.317Z,21.10
2018-03-23T14:23:58.589Z,19.75
2018-03-23T14:26:26.895Z,19.95
2018-03-23T14:28:56.053Z,20.30
2018-03-23T14:31:24.545Z,21.87
2018-03-23T14:33:53.397Z,22.52
2018-03-23T14:36:24.952Z,19.60
2018-03-23T14:38:53.551Z,21.90
2018-03-23T14:41:21.887Z,20.12
2018-03-23T14:43:50.978Z,22.40
2018-03-23T14:46:19.264Z,20.80
2018-03-23T14:48:47.505Z,19.98
2018-03-23T14:51:17.183Z,20.02
2018-03-23T14:53:46.097Z,19.87
2018-03-23T14:56:15.447Z,19.75
2018-03-23T14:58:49.208Z,21.02
2018-03-23T15:01:17.639Z,18.50
2018-03-23T15:03:45.949Z,18.90
2018-03-23T15:06:14.339Z,17.12
2018-03-23T15:08:43.712Z,18.50
2018-03-23T15:11:13.009Z,17.98
2018-03-23T15:13:41.296Z,16.77
2018-03-23T15:16:09.595Z,17.05
2018-03-23T15:18:38.774Z,17.05
2018-03-23T15:21:07.464Z,17.25
2018-03-23T15:23:36.565Z,16.17
2018-03-23T15:26:05.760Z,16.33
2018-03-23T15:28:34.017Z,14.50
2018-03-23T15:31:02.370Z,15.75
2018-03-23T15:33:30.851Z,15.73
2018-03-23T15:35:59.126Z,13.38
2018-03-23T15:38:27.396Z,14.23
2018-03-23T15:40:55.784Z,14.13
2018-03-23T15:43:24.208Z,15.18
2018-03-23T15:45:53.257Z,13.18
2018-03-23T15:48:22.542Z,13.43
2018-03-23T15:50:50.965Z,15.18
2018-03-23T15:53:19.388Z,12.35
2018-03-23T15:55:47.680Z,13.38
2018-03-23T15:58:16.005Z,13.77
2018-03-23T16:00:44.338Z,13.73
2018-03-23T16:03:12.785Z,13.02
2018-03-23T16:05:41.066Z,13.65
2018-03-23T16:08:09.359Z,13.70
2018-03-23T16:10:37.637Z,14.27
2018-03-23T16:13:05.953Z,13.68
2018-03-23T16:15:34.986Z,13.48
2018-03-23T16:18:03.386Z,13.62
2018-03-23T16:20:31.641Z,13.95
2018-03-23T16:22:59.934Z,14.87
2018-03-23T16:25:28.211Z,15.20
2018-03-23T16:27:56.531Z,14.50
2018-03-23T16:30:25.622Z,12.90
2018-03-23T16:32:54.768Z,14.65
2018-03-23T16:35:23.043Z,16.62
2018-03-23T16:37:51.314Z,14.77
2018-03-23T16:40:19.796Z,13.70
2018-03-23T16:42:48.074Z,14.75
2018-03-23T16:45:16.373Z,15.40
2018-03-23T16:47:44.633Z,14.90
2018-03-23T16:50:13.030Z,13.68
2018-03-23T16:52:41.436Z,14.20
2018-03-23T16:55:11.286Z,15.65
2018-03-23T16:57:39.663Z,14.70
2018-03-23T17:00:07.947Z,13.93
2018-03-23T17:02:36.307Z,14.10
2018-03-23T17:05:04.599Z,14.45
2018-03-23T17:07:32.988Z,14.25
2018-03-23T17:10:01.357Z,17.48
2018-03-23T17:12:29.837Z,16.85
2018-03-23T17:14:58.490Z,16.65
2018-03-23T17:17:26.804Z,15.85
2018-03-23T17:19:55.348Z,16.15
2018-03-23T17:22:23.665Z,14.60
2018-03-23T17:24:51.926Z,14.87
2018-03-23T17:27:20.174Z,13.32
2018-03-23T17:29:48.728Z,14.73
2018-03-23T17:32:17.785Z,15.63
2018-03-23T17:34:46.056Z,14.18
2018-03-23T17:37:14.344Z,13.25
2018-03-23T17:39:42.996Z,13.07
2018-03-23T17:42:11.381Z,14.52
2018-03-23T17:44:39.753Z,12.48
2018-03-23T17:47:08.051Z,12.98
2018-03-23T17:49:36.346Z,13.43
2018-03-23T17:52:06.171Z,13.13
2018-03-23T17:54:35.321Z,13.05
2018-03-23T17:57:03.781Z,13.27
2018-03-23T17:59:32.074Z,15.48
2018-03-23T18:02:00.365Z,16.62
2018-03-23T18:04:28.676Z,15.35
2018-03-23T18:06:57.731Z,14.80
2018-03-23T18:09:26.021Z,14.98
2018-03-23T18:11:54.317Z,15.30
2018-03-23T18:14:23.437Z,15.60
2018-03-23T18:16:52.621Z,15.30
2018-03-23T18:19:21.751Z,15.63
2018-03-23T18:21:50.147Z,16.02
2018-03-23T18:24:18.704Z,15.32
2018-03-23T18:26:47.171Z,15.48
2018-03-23T18:29:15.827Z,17.73
2018-03-23T18:31:44.162Z,16.67
2018-03-23T18:34:12.491Z,14.77
2018-03-23T18:36:41.591Z,15.95
2018-03-23T18:39:10.392Z,15.90
2018-03-23T18:41:38.798Z,16.08
2018-03-23T18:44:07.756Z,16.27
2018-03-23T18:46:36.535Z,16.50
2018-03-23T18:49:05.765Z,16.85
2018-03-23T18:51:34.763Z,18.83
2018-03-23T18:54:03.927Z,20.45
2018-03-23T18:56:32.838Z,21.52
2018-03-23T18:59:01.647Z,31.25
2018-03-23T19:01:30.215Z,31.48
2018-03-23T19:03:59.728Z,23.95
2018-03-23T19:06:29.090Z,22.77
2018-03-23T19:08:58.030Z,20.10
2018-03-23T19:11:26.653Z,21.42
2018-03-23T19:13:56.104Z,21.15
2018-03-23T19:16:24.508Z,21.70
2018-03-23T19:18:53.464Z,19.17
2018-03-23T19:21:22.297Z,19.37
2018-03-23T19:23:52.284Z,20.10
2018-03-23T19:26:20.740Z,19.50
2018-03-23T19:28:50.228Z,20.77
2018-03-23T19:31:18.717Z,19.40
2018-03-23T19:33:47.087Z,21.95
2018-03-23T19:36:15.626Z,18.98
2018-03-23T19:38:45.099Z,21.83
2018-03-23T19:41:13.871Z,20.98
2018-03-23T19:43:42.677Z,21.40
2018-03-23T19:46:11.299Z,20.62
2018-03-23T19:48:39.873Z,19.05
2018-03-23T19:51:08.709Z,17.80
2018-03-23T19:53:37.222Z,20.70
2018-03-23T19:56:05.893Z,22.48
2018-03-23T19:58:34.539Z,20.42
2018-03-23T20:01:02.933Z,19.33
2018-03-23T20:03:31.746Z,19.35
2018-03-23T20:06:00.363Z,17.83
2018-03-23T20:08:29.061Z,19.62
2018-03-23T20:10:58.342Z,19.95
2018-03-23T20:13:27.386Z,18.40
2018-03-23T20:15:56.019Z,20.60
2018-03-23T20:18:24.608Z,19.27
2018-03-23T20:20:58.763Z,20.37
2018-03-23T20:23:27.398Z,18.10
2018-03-23T20:25:56.861Z,19.80
2018-03-23T20:28:30.939Z,20.33
2018-03-23T20:31:00.363Z,20.25
2018-03-23T20:33:31.887Z,20.43
2018-03-23T20:36:01.469Z,20.30
2018-03-23T20:38:31.508Z,19.30
2018-03-23T20:41:00.245Z,17.70
2018-03-23T20:43:28.820Z,19.85
2018-03-23T20:45:57.583Z,20.37
2018-03-23T20:48:25.940Z,20.40
2018-03-23T20:50:54.563Z,20.85
2018-03-23T20:53:23.693Z,21.58
2018-03-23T20:55:52.147Z,22.50
2018-03-23T20:58:22.173Z,21.33
2018-03-23T21:00:50.800Z,19.98
2018-03-23T21:03:22.043Z,21.77
2018-03-23T21:05:51.049Z,23.45
2018-03-23T21:08:20.534Z,23.98
2018-03-23T21:10:49.529Z,23.50
2018-03-23T21:13:18.328Z,23.17
2018-03-23T21:15:47.233Z,24.30
2018-03-23T21:18:16.123Z,24.87
2018-03-23T21:20:47.064Z,26.48
2018-03-23T21:23:16.719Z,24.27
2018-03-23T21:25:45.523Z,23.90
2018-03-23T21:28:14.871Z,24.20
2018-03-23T21:30:43.478Z,23.00
2018-03-23T21:33:12.741Z,21.92
2018-03-23T21:35:42.010Z,23.58
2018-03-23T21:38:11.346Z,23.10
2018-03-23T21:40:40.270Z,23.30
2018-03-23T21:43:09.002Z,24.92
2018-03-23T21:45:37.380Z,25.65
2018-03-23T21:48:06.089Z,24.75
2018-03-23T21:50:34.988Z,25.95
2018-03-23T21:53:03.715Z,26.10
2018-03-23T21:55:32.948Z,24.67
2018-03-23T21:58:01.380Z,27.80
2018-03-23T22:00:29.809Z,25.80
2018-03-23T22:02:58.072Z,26.62
2018-03-23T22:05:26.355Z,25.92
2018-03-23T22:07:54.656Z,32.10
2018-03-23T22:10:22.935Z,28.35
2018-03-23T22:12:51.250Z,27.13
2018-03-23T22:15:20.311Z,26.00
2018-03-23T22:17:48.575Z,28.45
2018-03-23T22:20:16.888Z,25.23
2018-03-23T22:22:45.926Z,27.10
2018-03-23T22:25:14.217Z,27.90
2018-03-23T22:27:42.513Z,24.73
2018-03-23T22:30:10.981Z,26.67
2018-03-23T22:32:39.270Z,27.35
2018-03-23T22:35:07.682Z,28.60
2018-03-23T22:37:35.991Z,27.30
2018-03-23T22:40:04.377Z,26.92
2018-03-23T22:42:32.757Z,29.70
2018-03-23T22:45:01.034Z,27.95
2018-03-23T22:47:29.389Z,29.48
2018-03-23T22:49:57.673Z,29.63
2018-03-23T22:52:25.998Z,31.10
2018-03-23T22:54:54.291Z,30.55
2018-03-23T22:57:22.564Z,29.12
2018-03-23T22:59:50.865Z,28.83
2018-03-23T23:02:19.209Z,30.33
2018-03-23T23:04:48.261Z,31.37
2018-03-23T23:07:17.301Z,31.62
2018-03-23T23:09:45.605Z,32.20
2018-03-23T23:12:13.855Z,33.58
2018-03-23T23:14:42.136Z,31.42
2018-03-23T23:17:10.396Z,31.52
2018-03-23T23:19:39.445Z,31.42
2018-03-23T23:22:07.886Z,35.67
2018-03-23T23:24:36.238Z,35.72
2018-03-23T23:27:05.373Z,31.98
2018-03-23T23:29:33.824Z,31.55
2018-03-23T23:32:02.175Z,32.55
2018-03-23T23:34:31.215Z,36.65
2018-03-23T23:36:59.554Z,32.70
2018-03-23T23:39:28.857Z,32.30
2018-03-23T23:41:57.931Z,33.67
2018-03-23T23:44:26.272Z,32.40
2018-03-23T23:46:54.658Z,31.70
2018-03-23T23:49:23.061Z,34.03
2018-03-23T23:51:52.892Z,32.90
2018-03-23T23:56:56.699Z,31.25
2018-03-23T23:59:25.137Z,28.65
